createdAt,value
2019-03-12T00:02:21.071Z,77.18
2019-03-12T00:04:56.332Z,77.35
2019-03-12T00:07:29.076Z,76.65
2019-03-12T00:10:01.130Z,76.72
2019-03-12T00:12:34.309Z,76.48
2019-03-12T00:15:07.341Z,76.82
2019-03-12T00:17:40.091Z,76.96
2019-03-12T00:20:14.180Z,77.23
2019-03-12T00:22:47.179Z,77.38
2019-03-12T00:25:19.172Z,77.80
2019-03-12T00:27:52.330Z,77.75
2019-03-12T00:30:25.321Z,77.79
2019-03-12T00:32:58.325Z,77.98
2019-03-12T00:35:30.294Z,77.92
2019-03-12T00:38:04.312Z,77.84
2019-03-12T00:40:37.276Z,77.91
2019-03-12T00:43:09.294Z,78.16
2019-03-12T00:45:41.275Z,77.54
2019-03-12T00:48:14.463Z,78.12
2019-03-12T00:50:46.418Z,77.98
2019-03-12T00:53:19.882Z,78.48
2019-03-12T00:55:54.473Z,78.70
2019-03-12T00:58:29.998Z,79.38
2019-03-12T01:01:02.972Z,79.90
2019-03-12T01:03:36.102Z,79.74
2019-03-12T01:06:08.798Z,79.70
2019-03-12T01:08:42.480Z,79.42
2019-03-12T01:14:40.742Z,79.04
2019-03-12T01:17:13.578Z,79.54
2019-03-12T01:19:46.346Z,79.30
2019-03-12T01:25:56.603Z,79.22
2019-03-12T01:28:29.692Z,79.06
2019-03-12T01:31:01.599Z,78.71
2019-03-12T01:33:35.611Z,78.48
2019-03-12T01:36:07.550Z,78.97
2019-03-12T01:38:39.512Z,79.05
2019-03-12T01:41:11.751Z,78.71
2019-03-12T01:43:43.117Z,78.78
2019-03-12T01:46:15.845Z,78.97
2019-03-12T01:48:47.799Z,78.71
2019-03-12T01:51:20.947Z,78.90
2019-03-12T01:53:52.634Z,79.16
2019-03-12T01:56:24.804Z,79.05
2019-03-12T01:58:56.011Z,79.23
2019-03-12T02:01:28.675Z,79.35
2019-03-12T02:03:59.887Z,79.42
2019-03-12T02:06:32.232Z,79.37
2019-03-12T02:09:08.299Z,79.09
2019-03-12T02:11:40.177Z,78.86
2019-03-12T02:14:27.814Z,78.86
2019-03-12T02:17:01.767Z,78.77
2019-03-12T02:19:34.950Z,78.73
2019-03-12T02:22:09.545Z,79.29
2019-03-12T02:24:52.070Z,79.62
2019-03-12T02:27:18.589Z,79.75
2019-03-12T02:29:50.279Z,79.76
2019-03-12T02:32:23.155Z,79.87
2019-03-12T02:34:55.877Z,79.98
2019-03-12T02:37:29.645Z,79.86
2019-03-12T02:40:00.859Z,79.47
2019-03-12T02:42:32.090Z,79.72
2019-03-12T02:45:04.550Z,79.57
2019-03-12T02:47:35.893Z,79.57
2019-03-12T02:50:09.215Z,79.13
2019-03-12T02:52:40.918Z,79.08
2019-03-12T02:55:13.267Z,79.29
2019-03-12T02:57:46.925Z,78.72
2019-03-12T03:00:23.267Z,79.33
2019-03-12T03:02:54.423Z,79.01
2019-03-12T03:05:26.445Z,79.42
2019-03-12T03:08:00.629Z,79.46
2019-03-12T03:10:34.078Z,79.21
2019-03-12T03:13:07.368Z,79.74
2019-03-12T03:15:42.535Z,79.92
2019-03-12T03:18:16.406Z,79.82
2019-03-12T03:20:49.189Z,80.35
2019-03-12T03:23:22.181Z,79.92
2019-03-12T03:25:55.074Z,79.76
2019-03-12T03:28:28.077Z,79.45
2019-03-12T03:31:01.049Z,78.93
2019-03-12T03:33:34.030Z,79.24
2019-03-12T03:36:07.034Z,78.83
2019-03-12T03:38:39.988Z,78.71
2019-03-12T03:41:13.124Z,78.62
2019-03-12T03:43:46.187Z,77.94
2019-03-12T03:46:19.687Z,77.62
2019-03-12T03:48:52.294Z,78.27
2019-03-12T03:51:25.592Z,77.69
2019-03-12T03:53:58.274Z,78.59
2019-03-12T03:56:31.245Z,77.80
2019-03-12T03:59:04.254Z,78.38
2019-03-12T04:01:37.239Z,78.30
2019-03-12T04:04:10.739Z,77.31
2019-03-12T04:06:43.199Z,78.29
2019-03-12T04:09:16.312Z,77.88
2019-03-12T04:11:49.650Z,77.78
2019-03-12T04:14:22.311Z,78.13
2019-03-12T04:16:54.638Z,78.56
2019-03-12T04:19:28.676Z,78.36
2019-03-12T04:22:01.169Z,77.67
2019-03-12T04:24:34.460Z,76.93
2019-03-12T04:27:07.765Z,77.27
2019-03-12T04:29:39.547Z,76.37
2019-03-12T04:32:12.348Z,76.99
2019-03-12T04:34:44.002Z,77.27
2019-03-12T04:37:15.934Z,77.95
2019-03-12T04:39:49.531Z,78.02
2019-03-12T04:42:21.496Z,77.83
2019-03-12T04:44:52.756Z,77.15
2019-03-12T04:47:25.995Z,76.91
2019-03-12T04:49:58.294Z,77.09
2019-03-12T04:52:31.275Z,76.98
2019-03-12T04:55:06.644Z,77.68
2019-03-12T04:57:40.352Z,77.58
2019-03-12T05:00:15.805Z,77.11
2019-03-12T05:02:49.497Z,76.92
2019-03-12T05:05:20.934Z,76.98
2019-03-12T05:07:52.607Z,76.53
2019-03-12T05:10:26.088Z,77.19
2019-03-12T05:12:58.637Z,77.14
2019-03-12T05:15:31.633Z,76.75
2019-03-12T05:18:04.990Z,76.96
2019-03-12T05:20:37.743Z,76.73
2019-03-12T05:23:10.828Z,77.12
2019-03-12T05:25:43.224Z,76.98
2019-03-12T05:28:16.589Z,76.52
2019-03-12T05:30:49.690Z,76.55
2019-03-12T05:33:22.632Z,76.49
2019-03-12T05:35:55.644Z,76.71
2019-03-12T05:38:29.319Z,76.73
2019-03-12T05:41:00.820Z,76.43
2019-03-12T05:43:33.801Z,76.80
2019-03-12T05:46:07.877Z,77.08
2019-03-12T05:48:41.058Z,76.22
2019-03-12T05:51:13.745Z,75.93
2019-03-12T05:53:50.232Z,76.07
2019-03-12T05:56:22.722Z,75.52
2019-03-12T05:58:55.731Z,76.83
2019-03-12T06:01:28.568Z,76.49
2019-03-12T06:03:59.793Z,77.33
2019-03-12T06:06:32.038Z,77.58
2019-03-12T06:09:06.334Z,78.09
2019-03-12T06:11:37.925Z,77.29
2019-03-12T06:14:10.976Z,76.64
2019-03-12T06:16:43.557Z,77.00
2019-03-12T06:19:15.349Z,76.50
2019-03-12T06:21:46.978Z,77.18
2019-03-12T06:24:19.876Z,76.96
2019-03-12T06:26:52.964Z,77.76
2019-03-12T06:29:25.882Z,78.42
2019-03-12T06:32:09.734Z,78.87
2019-03-12T06:35:05.003Z,79.16
2019-03-12T06:37:46.516Z,79.00
2019-03-12T06:40:45.166Z,79.79
2019-03-12T06:43:41.096Z,81.23
2019-03-12T06:46:29.628Z,82.33
2019-03-12T06:49:14.744Z,81.92
2019-03-12T06:52:06.009Z,81.83
2019-03-12T06:54:43.802Z,81.49
2019-03-12T06:57:49.029Z,81.07
2019-03-12T07:00:33.690Z,81.06
2019-03-12T07:03:30.109Z,80.88
2019-03-12T07:06:20.588Z,80.70
2019-03-12T07:09:21.682Z,81.27
2019-03-12T07:12:06.819Z,80.79
2019-03-12T07:14:55.326Z,80.79
2019-03-12T07:18:03.755Z,81.57
2019-03-12T07:20:46.770Z,83.59
2019-03-12T07:23:56.138Z,83.79
2019-03-12T07:26:37.441Z,84.13
2019-03-12T07:29:33.281Z,84.02
2019-03-12T07:32:27.146Z,83.72
2019-03-12T07:35:25.584Z,83.55
2019-03-12T07:38:15.554Z,83.34
2019-03-12T07:41:25.238Z,83.70
2019-03-12T07:44:08.690Z,84.51
2019-03-12T07:47:00.219Z,84.93
2019-03-12T07:49:47.852Z,84.67
2019-03-12T07:52:46.806Z,84.38
2019-03-12T07:55:51.206Z,83.86
2019-03-12T07:58:47.710Z,83.19
2019-03-12T08:01:41.123Z,82.50
2019-03-12T08:04:27.162Z,82.03
2019-03-12T08:07:26.413Z,81.33
2019-03-12T08:10:08.476Z,81.63
2019-03-12T08:13:07.623Z,81.57
2019-03-12T08:16:00.659Z,82.18
2019-03-12T08:18:47.461Z,81.28
2019-03-12T08:21:42.435Z,80.87
2019-03-12T08:24:51.704Z,80.20
2019-03-12T08:27:45.120Z,81.42
2019-03-12T08:30:34.091Z,80.11
2019-03-12T08:33:24.763Z,79.92
2019-03-12T08:36:03.181Z,80.53
2019-03-12T08:38:56.660Z,81.43
2019-03-12T08:41:54.123Z,81.30
2019-03-12T08:44:58.909Z,80.78
2019-03-12T08:47:49.262Z,80.72
2019-03-12T08:50:44.822Z,79.51
2019-03-12T08:53:41.617Z,79.02
2019-03-12T08:56:33.494Z,79.20
2019-03-12T08:59:29.364Z,78.07
2019-03-12T09:02:22.361Z,77.70
2019-03-12T09:05:13.415Z,77.78
2019-03-12T09:07:59.501Z,76.67
2019-03-12T09:10:41.244Z,77.25
2019-03-12T09:13:27.226Z,77.76
2019-03-12T09:16:22.325Z,78.86
2019-03-12T09:19:13.449Z,78.45
2019-03-12T09:22:14.744Z,77.74
2019-03-12T09:25:11.872Z,77.48
2019-03-12T09:28:25.279Z,76.21
2019-03-12T09:31:25.416Z,75.84
2019-03-12T09:34:16.963Z,76.20
2019-03-12T09:37:16.264Z,76.09
2019-03-12T09:40:13.448Z,76.52
2019-03-12T09:43:07.382Z,75.42
2019-03-12T09:45:52.899Z,75.10
2019-03-12T09:48:50.080Z,74.65
2019-03-12T09:51:30.440Z,74.73
2019-03-12T09:54:19.564Z,75.21
2019-03-12T09:57:09.130Z,74.21
2019-03-12T10:00:14.959Z,73.51
2019-03-12T10:02:57.591Z,74.46
2019-03-12T10:05:36.584Z,73.52
2019-03-12T10:08:25.666Z,73.47
2019-03-12T10:11:10.685Z,73.49
2019-03-12T10:13:58.577Z,71.88
2019-03-12T10:16:53.933Z,72.36
2019-03-12T10:19:48.311Z,72.41
2019-03-12T10:22:34.481Z,72.48
2019-03-12T10:25:17.001Z,72.71
2019-03-12T10:27:59.532Z,72.12
2019-03-12T10:31:04.901Z,72.93
2019-03-12T10:33:59.617Z,73.32
2019-03-12T10:36:49.857Z,74.37
2019-03-12T10:40:17.571Z,72.66
2019-03-12T10:43:21.567Z,72.35
2019-03-12T10:46:21.228Z,71.34
2019-03-12T10:48:53.104Z,72.90
2019-03-12T10:51:26.527Z,72.02
2019-03-12T10:53:59.085Z,72.40
2019-03-12T10:56:32.946Z,71.24
2019-03-12T10:59:06.135Z,71.01
2019-03-12T11:01:38.402Z,71.40
2019-03-12T11:04:12.752Z,69.63
2019-03-12T11:06:47.256Z,70.12
2019-03-12T11:09:20.175Z,70.15
2019-03-12T11:11:51.837Z,70.21
2019-03-12T11:14:25.109Z,70.94
2019-03-12T11:16:58.238Z,70.90
2019-03-12T11:19:29.454Z,72.44
2019-03-12T11:22:03.238Z,71.77
2019-03-12T11:24:35.149Z,72.11
2019-03-12T11:27:08.453Z,72.74
2019-03-12T11:29:41.217Z,71.33
2019-03-12T11:32:14.121Z,71.90
2019-03-12T11:34:47.421Z,72.00
2019-03-12T11:37:20.716Z,71.87
2019-03-12T11:39:54.981Z,72.08
2019-03-12T11:42:29.766Z,71.76
2019-03-12T11:45:13.132Z,71.82
2019-03-12T11:47:39.840Z,71.92
2019-03-12T11:50:15.837Z,70.70
2019-03-12T11:52:54.138Z,71.22
2019-03-12T11:55:21.846Z,70.47
2019-03-12T11:57:53.461Z,69.76
2019-03-12T12:00:30.662Z,67.70
2019-03-12T12:03:02.401Z,67.48
2019-03-12T12:05:33.777Z,66.94
2019-03-12T12:08:05.507Z,66.14
2019-03-12T12:10:37.927Z,65.43
2019-03-12T12:13:09.502Z,64.48
2019-03-12T12:15:41.526Z,62.07
2019-03-12T12:18:14.295Z,64.49
2019-03-12T12:20:47.474Z,62.22
2019-03-12T12:23:20.492Z,62.67
2019-03-12T12:25:53.526Z,65.80
2019-03-12T12:28:26.626Z,60.00
2019-03-12T12:30:58.690Z,60.97
2019-03-12T12:33:30.608Z,61.12
2019-03-12T12:36:02.549Z,60.64
2019-03-12T12:38:35.586Z,59.56
2019-03-12T12:41:08.639Z,59.86
2019-03-12T12:43:44.075Z,59.93
2019-03-12T12:46:16.000Z,59.55
2019-03-12T12:48:47.748Z,58.16
2019-03-12T12:51:21.751Z,58.90
2019-03-12T12:53:53.706Z,58.75
2019-03-12T12:56:27.601Z,58.36
2019-03-12T12:58:59.666Z,59.54
2019-03-12T13:01:32.588Z,57.57
2019-03-12T13:04:06.406Z,58.40
2019-03-12T13:06:39.304Z,58.30
2019-03-12T13:09:15.322Z,58.22
2019-03-12T13:11:48.589Z,58.14
2019-03-12T13:14:23.307Z,59.74
2019-03-12T13:16:57.681Z,60.81
2019-03-12T13:19:30.480Z,59.95
2019-03-12T13:22:02.132Z,60.31
2019-03-12T13:24:35.571Z,61.50
2019-03-12T13:27:09.018Z,61.77
2019-03-12T13:29:41.736Z,61.54
2019-03-12T13:32:14.097Z,61.49
2019-03-12T13:34:47.691Z,60.39
2019-03-12T13:37:21.813Z,61.27
2019-03-12T13:39:56.080Z,60.74
2019-03-12T13:42:29.848Z,60.93
2019-03-12T13:45:02.268Z,60.75
2019-03-12T13:47:34.781Z,60.10
2019-03-12T13:50:08.899Z,60.54
2019-03-12T13:52:42.708Z,60.38
2019-03-12T13:55:15.522Z,61.42
2019-03-12T13:57:47.898Z,60.07
2019-03-12T14:00:22.227Z,60.33
2019-03-12T14:02:55.946Z,61.01
2019-03-12T14:05:28.936Z,62.14
2019-03-12T14:08:01.966Z,61.72
2019-03-12T14:10:35.127Z,61.92
2019-03-12T14:13:08.154Z,61.96
2019-03-12T14:15:40.903Z,62.30
2019-03-12T14:18:14.098Z,62.30
2019-03-12T14:20:49.093Z,62.97
2019-03-12T14:23:49.985Z,63.04
2019-03-12T14:26:23.017Z,63.53
2019-03-12T14:28:55.931Z,62.83
2019-03-12T14:31:29.215Z,62.24
2019-03-12T14:34:02.161Z,62.13
2019-03-12T14:36:35.087Z,62.32
2019-03-12T14:39:08.392Z,62.45
2019-03-12T14:41:43.718Z,62.15
2019-03-12T14:44:17.599Z,61.37
2019-03-12T14:46:51.017Z,61.95
2019-03-12T14:49:24.058Z,62.24
2019-03-12T14:52:01.121Z,62.26
2019-03-12T14:54:35.960Z,61.97
2019-03-12T14:57:08.061Z,61.36
2019-03-12T14:59:42.062Z,62.23
2019-03-12T15:02:14.505Z,61.76
2019-03-12T15:04:48.741Z,62.25
2019-03-12T15:07:25.711Z,61.95
2019-03-12T15:09:59.663Z,61.75
2019-03-12T15:12:32.735Z,62.30
2019-03-12T15:15:06.249Z,62.70
2019-03-12T15:17:38.388Z,61.45
2019-03-12T15:20:11.621Z,61.94
2019-03-12T15:22:44.298Z,61.53
2019-03-12T15:25:20.015Z,61.62
2019-03-12T15:27:53.868Z,61.54
2019-03-12T15:30:26.955Z,61.18
2019-03-12T15:32:59.446Z,62.20
2019-03-12T15:35:33.326Z,61.96
2019-03-12T15:38:05.687Z,61.84
2019-03-12T15:40:38.657Z,62.03
2019-03-12T15:43:11.581Z,60.39
2019-03-12T15:45:44.067Z,59.01
2019-03-12T15:48:21.526Z,57.29
2019-03-12T15:50:53.539Z,53.76
2019-03-12T15:53:26.534Z,50.82
2019-03-12T15:56:00.097Z,50.00
2019-03-12T15:58:34.111Z,49.20
2019-03-12T16:01:06.202Z,50.68
2019-03-12T16:03:41.712Z,50.61
2019-03-12T16:06:14.454Z,50.84
2019-03-12T16:08:47.437Z,47.81
2019-03-12T16:11:20.557Z,45.46
2019-03-12T16:13:53.427Z,49.28
2019-03-12T16:16:25.595Z,48.79
2019-03-12T16:18:57.567Z,48.44
2019-03-12T16:21:31.575Z,49.19
2019-03-12T16:24:04.143Z,49.80
2019-03-12T16:26:38.219Z,50.95
2019-03-12T16:29:10.687Z,52.09
2019-03-12T16:31:44.931Z,53.25
2019-03-12T16:34:16.868Z,53.53
2019-03-12T16:36:50.873Z,54.91
2019-03-12T16:39:24.665Z,56.27
2019-03-12T16:41:56.676Z,57.02
2019-03-12T16:44:29.593Z,58.42
2019-03-12T16:47:03.630Z,59.36
2019-03-12T16:49:36.107Z,60.57
2019-03-12T16:52:08.717Z,62.09
2019-03-12T16:54:40.701Z,61.94
2019-03-12T16:57:14.678Z,61.97
2019-03-12T16:59:48.150Z,61.50
2019-03-12T17:02:21.359Z,62.56
2019-03-12T17:04:55.429Z,63.00
2019-03-12T17:07:29.492Z,63.98
2019-03-12T17:10:02.806Z,63.63
2019-03-12T17:12:35.967Z,64.37
2019-03-12T17:15:10.254Z,64.91
2019-03-12T17:17:42.800Z,64.21
2019-03-12T17:20:16.261Z,64.85
2019-03-12T17:22:47.888Z,65.47
2019-03-12T17:25:20.875Z,65.83
2019-03-12T17:27:54.079Z,66.83
2019-03-12T17:30:27.099Z,66.79
2019-03-12T17:33:00.051Z,66.69
2019-03-12T17:35:33.807Z,67.18
2019-03-12T17:38:05.881Z,67.78
2019-03-12T17:40:37.998Z,67.92
2019-03-12T17:43:11.886Z,67.07
2019-03-12T17:45:44.323Z,66.58
2019-03-12T17:48:16.535Z,66.52
2019-03-12T17:50:47.896Z,66.34
2019-03-12T17:53:21.162Z,65.99
2019-03-12T17:55:55.795Z,66.22
2019-03-12T17:58:27.002Z,65.95
2019-03-12T18:01:00.142Z,66.08
2019-03-12T18:03:33.012Z,66.58
2019-03-12T18:06:06.232Z,67.11
2019-03-12T18:08:39.169Z,67.27
2019-03-12T18:11:12.248Z,67.45
2019-03-12T18:13:44.263Z,67.24
2019-03-12T18:16:18.183Z,66.43
2019-03-12T18:18:51.122Z,67.78
2019-03-12T18:21:24.113Z,67.73
2019-03-12T18:23:58.068Z,67.75
2019-03-12T18:26:31.200Z,67.99
2019-03-12T18:29:03.204Z,68.07
2019-03-12T18:31:36.174Z,68.32
2019-03-12T18:34:09.358Z,68.40
2019-03-12T18:36:42.171Z,68.48
2019-03-12T18:39:15.394Z,68.53
2019-03-12T18:41:48.307Z,69.22
2019-03-12T18:44:34.592Z,69.33
2019-03-12T18:47:08.160Z,69.45
2019-03-12T18:49:41.272Z,69.52
2019-03-12T18:52:15.348Z,69.61
2019-03-12T18:54:48.353Z,69.32
2019-03-12T18:57:21.312Z,69.81
2019-03-12T18:59:55.959Z,70.30
2019-03-12T19:02:31.558Z,70.45
2019-03-12T19:05:07.340Z,70.37
2019-03-12T19:07:43.119Z,70.08
2019-03-12T19:10:17.084Z,70.05
2019-03-12T19:12:51.394Z,70.48
2019-03-12T19:15:25.819Z,70.36
2019-03-12T19:18:01.019Z,70.39
2019-03-12T19:20:33.224Z,70.36
2019-03-12T19:23:06.504Z,70.59
2019-03-12T19:25:40.490Z,70.81
2019-03-12T19:28:14.770Z,70.94
2019-03-12T19:30:47.556Z,70.77
2019-03-12T19:33:22.970Z,70.75
2019-03-12T19:35:56.530Z,70.93
2019-03-12T19:38:29.582Z,71.34
2019-03-12T19:41:01.571Z,71.29
2019-03-12T19:43:34.563Z,71.11
2019-03-12T19:46:08.616Z,71.53
2019-03-12T19:48:41.533Z,71.56
2019-03-12T19:51:14.668Z,71.41
2019-03-12T19:53:47.646Z,73.77
2019-03-12T19:56:20.534Z,73.66
2019-03-12T19:58:53.857Z,72.87
2019-03-12T20:01:29.524Z,72.88
2019-03-12T20:04:03.246Z,72.83
2019-03-12T20:06:35.700Z,72.41
2019-03-12T20:09:10.356Z,72.03
2019-03-12T20:12:14.694Z,71.91
2019-03-12T20:15:34.069Z,72.25
2019-03-12T20:18:54.513Z,72.34
2019-03-12T20:22:16.295Z,72.51
2019-03-12T20:25:35.233Z,72.66
2019-03-12T20:28:49.050Z,72.38
2019-03-12T20:32:08.577Z,72.39
2019-03-12T20:35:37.224Z,72.39
2019-03-12T20:39:00.611Z,72.86
2019-03-12T20:42:14.752Z,72.51
2019-03-12T20:45:39.443Z,72.62
2019-03-12T20:49:10.423Z,72.74
2019-03-12T20:52:40.123Z,72.72
2019-03-12T20:55:48.484Z,72.79
2019-03-12T20:59:31.508Z,72.82
2019-03-12T21:02:42.654Z,73.23
2019-03-12T21:06:05.291Z,73.54
2019-03-12T21:09:14.263Z,73.10
2019-03-12T21:12:29.369Z,72.66
2019-03-12T21:16:00.019Z,72.74
2019-03-12T21:19:10.253Z,72.47
2019-03-12T21:22:03.926Z,72.47
2019-03-12T21:25:31.692Z,72.95
2019-03-12T21:28:38.466Z,73.14
2019-03-12T21:31:14.818Z,73.31
2019-03-12T21:33:45.247Z,73.60
2019-03-12T21:36:18.189Z,73.13
2019-03-12T21:38:51.110Z,72.88
2019-03-12T21:41:23.090Z,72.67
2019-03-12T21:43:55.646Z,72.70
2019-03-12T21:46:27.722Z,72.72
2019-03-12T21:49:00.125Z,73.03
2019-03-12T21:51:35.730Z,73.27
2019-03-12T21:54:08.953Z,72.95
2019-03-12T21:56:42.176Z,73.24
2019-03-12T21:59:15.136Z,73.42
2019-03-12T22:01:48.058Z,73.27
2019-03-12T22:04:22.106Z,73.04
2019-03-12T22:06:54.575Z,73.15
2019-03-12T22:09:28.118Z,73.04
2019-03-12T22:12:01.873Z,73.69
2019-03-12T22:14:37.653Z,73.91
2019-03-12T22:17:09.259Z,73.72
2019-03-12T22:19:41.708Z,73.83
2019-03-12T22:22:29.128Z,73.82
2019-03-12T22:25:03.586Z,73.91
2019-03-12T22:27:36.254Z,74.24
2019-03-12T22:30:13.114Z,74.36
2019-03-12T22:32:44.575Z,74.63
2019-03-12T22:35:18.094Z,74.38
2019-03-12T22:37:52.187Z,74.22
2019-03-12T22:40:24.296Z,73.90
2019-03-12T22:42:57.274Z,73.78
2019-03-12T22:45:30.419Z,74.92
2019-03-12T22:48:03.331Z,75.13
2019-03-12T22:50:36.252Z,74.72
2019-03-12T22:53:09.616Z,74.16
2019-03-12T22:55:42.435Z,74.03
2019-03-12T22:58:15.194Z,73.75
2019-03-12T23:00:48.992Z,73.59
2019-03-12T23:03:21.595Z,73.58
2019-03-12T23:05:54.492Z,73.75
2019-03-12T23:08:28.095Z,73.70
2019-03-12T23:11:01.311Z,73.64
2019-03-12T23:13:33.693Z,74.16
2019-03-12T23:16:06.434Z,74.40
2019-03-12T23:18:39.432Z,74.87
2019-03-12T23:21:12.665Z,74.55
2019-03-12T23:23:44.574Z,75.05
2019-03-12T23:26:19.073Z,74.57
2019-03-12T23:28:51.605Z,74.85
2019-03-12T23:31:27.043Z,74.76
2019-03-12T23:34:00.553Z,74.92
2019-03-12T23:36:34.483Z,74.65
2019-03-12T23:39:07.941Z,74.52
2019-03-12T23:41:39.921Z,74.75
2019-03-12T23:44:12.474Z,75.23
2019-03-12T23:46:43.718Z,75.00
2019-03-12T23:49:17.251Z,74.63
2019-03-12T23:51:48.449Z,74.56
2019-03-12T23:54:21.334Z,74.50
2019-03-12T23:56:54.600Z,74.99
2019-03-12T23:59:30.009Z,75.43
